createdAt,value
2022-10-18T00:01:00.727Z,14.99
2022-10-18T00:02:04.235Z,15.00
2022-10-18T00:03:07.903Z,14.98
2022-10-18T00:04:09.943Z,14.98
2022-10-18T00:05:12.753Z,14.97
2022-10-18T00:06:14.597Z,14.95
2022-10-18T00:07:17.358Z,14.94
2022-10-18T00:08:20.446Z,14.93
2022-10-18T00:09:23.326Z,14.93
2022-10-18T00:10:25.293Z,14.91
2022-10-18T00:11:28.346Z,14.92
2022-10-18T00:12:32.954Z,14.92
2022-10-18T00:13:36.095Z,14.92
2022-10-18T00:14:37.958Z,14.92
2022-10-18T00:15:40.858Z,14.90
2022-10-18T00:16:42.642Z,14.89
2022-10-18T00:17:46.812Z,14.89
2022-10-18T00:18:48.582Z,14.88
2022-10-18T00:19:51.651Z,14.87
2022-10-18T00:20:58.665Z,14.87
2022-10-18T00:22:01.479Z,14.86
2022-10-18T00:23:03.483Z,14.85
2022-10-18T00:24:07.241Z,14.84
2022-10-18T00:25:10.116Z,14.83
2022-10-18T00:26:15.043Z,14.84
2022-10-18T00:27:17.555Z,14.83
2022-10-18T00:28:20.395Z,14.82
2022-10-18T00:29:22.217Z,14.81
2022-10-18T00:30:26.116Z,14.80
2022-10-18T00:31:29.384Z,14.79
2022-10-18T00:32:32.945Z,14.78
2022-10-18T00:33:36.312Z,14.76
2022-10-18T00:34:39.285Z,14.76
2022-10-18T00:35:41.246Z,14.75
2022-10-18T00:36:45.158Z,14.74
2022-10-18T00:37:47.245Z,14.72
2022-10-18T00:38:50.513Z,14.72
2022-10-18T00:41:00.498Z,14.72
2022-10-18T00:42:03.807Z,14.71
2022-10-18T00:43:06.861Z,14.72
2022-10-18T00:44:42.055Z,14.73
2022-10-18T00:45:45.067Z,14.73
2022-10-18T00:46:48.768Z,14.74
2022-10-18T00:47:54.762Z,14.74
2022-10-18T00:49:01.573Z,14.74
2022-10-18T00:50:07.033Z,14.73
2022-10-18T00:51:09.869Z,14.73
2022-10-18T00:52:14.713Z,14.72
2022-10-18T00:53:18.826Z,14.72
2022-10-18T00:54:22.398Z,14.70
2022-10-18T00:55:24.940Z,14.70
2022-10-18T00:56:28.157Z,14.67
2022-10-18T00:57:30.541Z,14.66
2022-10-18T00:58:33.954Z,14.65
2022-10-18T00:59:37.140Z,14.63
2022-10-18T01:00:40.829Z,14.61
2022-10-18T01:01:43.140Z,14.61
2022-10-18T01:02:47.616Z,14.60
2022-10-18T01:03:51.257Z,14.58
2022-10-18T01:04:55.577Z,14.58
2022-10-18T01:05:57.485Z,14.56
2022-10-18T01:07:17.364Z,14.55
2022-10-18T01:08:51.821Z,14.54
2022-10-18T01:10:11.511Z,14.54
2022-10-18T01:11:34.535Z,14.53
2022-10-18T01:12:47.604Z,14.53
2022-10-18T01:14:02.204Z,14.53
2022-10-18T01:15:10.590Z,14.51
2022-10-18T01:16:20.821Z,14.51
2022-10-18T01:17:35.822Z,14.51
2022-10-18T01:18:49.155Z,14.50
2022-10-18T01:20:19.013Z,14.50
2022-10-18T01:21:33.164Z,14.48
2022-10-18T01:22:39.578Z,14.48
2022-10-18T01:24:02.710Z,14.47
2022-10-18T01:25:18.843Z,14.47
2022-10-18T01:26:38.915Z,14.47
2022-10-18T01:28:04.123Z,14.46
2022-10-18T01:29:15.536Z,14.45
2022-10-18T01:30:36.816Z,14.44
2022-10-18T01:31:46.348Z,14.43
2022-10-18T01:32:51.965Z,14.42
2022-10-18T01:33:58.865Z,14.42
2022-10-18T01:35:04.694Z,14.40
2022-10-18T01:36:15.178Z,14.41
2022-10-18T01:37:20.097Z,14.39
2022-10-18T01:38:25.950Z,14.38
2022-10-18T01:39:33.048Z,14.38
2022-10-18T01:40:38.082Z,14.37
2022-10-18T01:41:43.592Z,14.35
2022-10-18T01:42:48.430Z,14.35
2022-10-18T01:43:55.707Z,14.34
2022-10-18T01:44:58.949Z,14.35
2022-10-18T01:46:05.638Z,14.35
2022-10-18T01:47:10.868Z,14.33
2022-10-18T01:48:15.003Z,14.35
2022-10-18T01:49:16.894Z,14.33
2022-10-18T01:50:29.877Z,14.32
2022-10-18T01:51:34.111Z,14.32
2022-10-18T01:52:36.084Z,14.32
2022-10-18T01:53:38.913Z,14.32
2022-10-18T01:54:44.986Z,14.31
2022-10-18T01:55:56.459Z,14.31
2022-10-18T01:57:02.851Z,14.30
2022-10-18T01:58:13.798Z,14.29
2022-10-18T01:59:40.091Z,14.27
2022-10-18T02:00:44.174Z,14.25
2022-10-18T02:01:56.980Z,14.25
2022-10-18T02:03:08.279Z,14.25
2022-10-18T02:04:21.795Z,14.25
2022-10-18T02:05:32.598Z,14.24
2022-10-18T02:06:42.860Z,14.24
2022-10-18T02:08:00.323Z,14.23
2022-10-18T02:09:21.050Z,14.23
2022-10-18T02:10:29.853Z,14.23
2022-10-18T02:11:34.877Z,14.24
2022-10-18T02:12:40.406Z,14.24
2022-10-18T02:13:46.444Z,14.23
2022-10-18T02:14:51.538Z,14.24
2022-10-18T02:15:58.803Z,14.23
2022-10-18T02:17:06.535Z,14.22
2022-10-18T02:18:13.498Z,14.22
2022-10-18T02:19:22.231Z,14.22
2022-10-18T02:20:26.138Z,14.20
2022-10-18T02:21:30.663Z,14.20
2022-10-18T02:22:34.160Z,14.19
2022-10-18T02:23:38.344Z,14.18
2022-10-18T02:24:44.130Z,14.18
2022-10-18T02:25:47.150Z,14.17
2022-10-18T02:26:49.308Z,14.17
2022-10-18T02:27:52.731Z,14.14
2022-10-18T02:28:55.543Z,14.12
2022-10-18T02:29:58.871Z,14.12
2022-10-18T02:31:05.885Z,14.12
2022-10-18T02:32:13.398Z,14.10
2022-10-18T02:33:21.771Z,14.10
2022-10-18T02:34:28.203Z,14.10
2022-10-18T02:35:32.871Z,14.09
2022-10-18T02:36:39.028Z,14.07
2022-10-18T02:37:42.771Z,14.09
2022-10-18T02:38:47.342Z,14.10
2022-10-18T02:39:51.074Z,14.09
2022-10-18T02:40:54.019Z,14.09
2022-10-18T02:41:56.846Z,14.09
2022-10-18T02:43:00.123Z,14.09
2022-10-18T02:44:01.918Z,14.08
2022-10-18T02:45:06.095Z,14.09
2022-10-18T02:46:07.914Z,14.07
2022-10-18T02:47:13.465Z,14.06
2022-10-18T02:48:15.254Z,14.06
2022-10-18T02:49:19.172Z,14.07
2022-10-18T02:50:21.124Z,14.06
2022-10-18T02:51:25.156Z,14.06
2022-10-18T02:52:26.987Z,14.07
2022-10-18T02:53:29.789Z,14.07
2022-10-18T02:54:31.656Z,14.06
2022-10-18T02:55:34.444Z,14.06
2022-10-18T02:56:36.270Z,14.05
2022-10-18T02:57:39.108Z,14.05
2022-10-18T02:58:41.001Z,14.05
2022-10-18T02:59:43.813Z,14.05
2022-10-18T03:00:45.581Z,14.04
2022-10-18T03:01:48.450Z,14.03
2022-10-18T03:02:52.908Z,14.03
2022-10-18T03:03:55.821Z,14.02
2022-10-18T03:04:57.673Z,14.03
2022-10-18T03:06:00.752Z,14.03
2022-10-18T03:07:02.633Z,14.03
2022-10-18T03:08:05.856Z,14.03
2022-10-18T03:09:07.659Z,14.04
2022-10-18T03:10:10.881Z,14.03
2022-10-18T03:11:12.770Z,14.02
2022-10-18T03:12:15.753Z,14.00
2022-10-18T03:13:17.911Z,14.01
2022-10-18T03:14:20.759Z,14.01
2022-10-18T03:15:22.589Z,14.00
2022-10-18T03:16:25.766Z,14.01
2022-10-18T03:17:27.672Z,14.01
2022-10-18T03:18:31.846Z,14.01
2022-10-18T03:19:33.824Z,14.00
2022-10-18T03:20:37.181Z,13.99
2022-10-18T03:21:38.969Z,13.99
2022-10-18T03:22:41.896Z,13.99
2022-10-18T03:23:43.754Z,13.99
2022-10-18T03:24:46.593Z,13.99
2022-10-18T03:25:48.375Z,13.99
2022-10-18T03:26:51.141Z,13.97
2022-10-18T03:27:52.949Z,13.97
2022-10-18T03:28:55.963Z,13.97
2022-10-18T03:29:59.136Z,13.96
2022-10-18T03:31:02.888Z,13.96
2022-10-18T03:32:05.072Z,13.96
2022-10-18T03:33:08.052Z,13.95
2022-10-18T03:34:11.239Z,13.95
2022-10-18T03:35:14.169Z,13.95
2022-10-18T03:36:16.953Z,13.95
2022-10-18T03:37:18.763Z,13.95
2022-10-18T03:38:21.576Z,13.96
2022-10-18T03:39:23.388Z,13.95
2022-10-18T03:40:26.189Z,13.95
2022-10-18T03:41:29.191Z,13.94
2022-10-18T03:42:31.375Z,13.93
2022-10-18T03:43:34.317Z,13.93
2022-10-18T03:44:36.168Z,13.93
2022-10-18T03:45:39.078Z,13.93
2022-10-18T03:46:40.894Z,13.92
2022-10-18T03:47:43.710Z,13.92
2022-10-18T03:48:45.458Z,13.91
2022-10-18T03:49:52.041Z,13.90
2022-10-18T03:50:56.469Z,13.91
2022-10-18T03:51:59.237Z,13.90
2022-10-18T03:53:01.363Z,13.91
2022-10-18T03:54:04.578Z,13.89
2022-10-18T03:55:07.612Z,13.89
2022-10-18T03:56:10.363Z,13.89
2022-10-18T03:57:12.165Z,13.87
2022-10-18T03:58:14.897Z,13.87
2022-10-18T03:59:17.034Z,13.86
2022-10-18T04:00:20.130Z,13.85
2022-10-18T04:01:22.103Z,13.84
2022-10-18T04:02:24.978Z,13.87
2022-10-18T04:03:26.882Z,13.84
2022-10-18T04:04:29.605Z,13.85
2022-10-18T04:05:34.359Z,13.85
2022-10-18T04:06:37.893Z,13.85
2022-10-18T04:07:39.894Z,13.84
2022-10-18T04:08:42.893Z,13.85
2022-10-18T04:09:44.845Z,13.87
2022-10-18T04:10:47.681Z,13.84
2022-10-18T04:11:50.234Z,13.84
2022-10-18T04:12:53.304Z,13.85
2022-10-18T04:13:55.142Z,13.83
2022-10-18T04:14:57.913Z,13.83
2022-10-18T04:15:59.722Z,13.82
2022-10-18T04:17:02.740Z,13.83
2022-10-18T04:18:04.595Z,13.82
2022-10-18T04:19:07.460Z,13.82
2022-10-18T04:20:10.004Z,13.82
2022-10-18T04:21:14.185Z,13.83
2022-10-18T04:22:16.026Z,13.81
2022-10-18T04:23:18.840Z,13.82
2022-10-18T04:24:20.668Z,13.81
2022-10-18T04:25:23.480Z,13.81
2022-10-18T04:26:25.531Z,13.80
2022-10-18T04:27:28.366Z,13.79
2022-10-18T04:28:36.216Z,13.79
2022-10-18T04:29:39.142Z,13.79
2022-10-18T04:30:40.929Z,13.79
2022-10-18T04:31:43.886Z,13.78
2022-10-18T04:32:45.826Z,13.79
2022-10-18T04:33:48.633Z,13.78
2022-10-18T04:34:50.541Z,13.77
2022-10-18T04:35:54.393Z,13.78
2022-10-18T04:36:58.711Z,13.77
2022-10-18T04:38:00.607Z,13.75
2022-10-18T04:39:03.360Z,13.75
2022-10-18T04:40:06.391Z,13.76
2022-10-18T04:41:09.431Z,13.76
2022-10-18T04:42:11.270Z,13.76
2022-10-18T04:43:14.073Z,13.77
2022-10-18T04:44:15.970Z,13.75
2022-10-18T04:45:19.117Z,13.75
2022-10-18T04:46:21.029Z,13.75
2022-10-18T04:47:23.986Z,13.75
2022-10-18T04:48:26.317Z,13.74
2022-10-18T04:49:29.061Z,13.74
2022-10-18T04:50:30.888Z,13.73
2022-10-18T04:51:33.690Z,13.75
2022-10-18T04:52:36.954Z,13.73
2022-10-18T04:53:39.695Z,13.72
2022-10-18T04:54:41.579Z,13.72
2022-10-18T04:55:45.309Z,13.72
2022-10-18T04:56:47.117Z,13.72
2022-10-18T04:57:50.011Z,13.71
2022-10-18T04:58:51.975Z,13.71
2022-10-18T04:59:54.770Z,13.74
2022-10-18T05:00:56.603Z,13.74
2022-10-18T05:01:59.689Z,13.74
2022-10-18T05:03:01.599Z,13.74
2022-10-18T05:04:04.912Z,13.73
2022-10-18T05:05:10.417Z,13.73
2022-10-18T05:06:15.046Z,13.71
2022-10-18T05:07:18.206Z,13.70
2022-10-18T05:08:21.373Z,13.69
2022-10-18T05:09:24.845Z,13.69
2022-10-18T05:10:26.904Z,13.75
2022-10-18T05:11:29.645Z,13.78
2022-10-18T05:12:31.619Z,13.79
2022-10-18T05:13:34.559Z,13.80
2022-10-18T05:14:36.445Z,13.79
2022-10-18T05:15:39.199Z,13.79
2022-10-18T05:16:41.019Z,13.77
2022-10-18T05:17:44.023Z,13.75
2022-10-18T05:18:45.884Z,13.73
2022-10-18T05:19:48.637Z,13.72
2022-10-18T05:20:50.453Z,13.71
2022-10-18T05:21:53.215Z,13.71
2022-10-18T05:22:55.693Z,13.71
2022-10-18T05:23:59.872Z,13.70
2022-10-18T05:25:01.809Z,13.69
2022-10-18T05:26:06.110Z,13.69
2022-10-18T05:27:07.970Z,13.69
2022-10-18T05:28:34.531Z,13.68
2022-10-18T05:29:34.278Z,13.68
2022-10-18T05:30:37.720Z,13.68
2022-10-18T05:31:40.493Z,13.68
2022-10-18T05:32:42.956Z,13.68
2022-10-18T05:33:46.330Z,13.68
2022-10-18T05:34:48.375Z,13.68
2022-10-18T05:35:51.309Z,13.69
2022-10-18T05:36:53.205Z,13.68
2022-10-18T05:37:56.027Z,13.68
2022-10-18T05:39:02.475Z,13.68
2022-10-18T05:40:09.413Z,13.68
2022-10-18T05:41:12.280Z,13.69
2022-10-18T05:42:15.116Z,13.69
2022-10-18T05:43:17.735Z,13.70
2022-10-18T05:44:20.858Z,13.70
2022-10-18T05:45:22.763Z,13.69
2022-10-18T05:46:25.690Z,13.70
2022-10-18T05:47:27.521Z,13.70
2022-10-18T05:48:30.553Z,13.69
2022-10-18T05:49:33.413Z,13.70
2022-10-18T05:50:38.107Z,13.70
2022-10-18T05:51:43.344Z,13.70
2022-10-18T05:52:45.302Z,13.70
2022-10-18T05:53:48.192Z,13.70
2022-10-18T05:54:51.367Z,13.71
2022-10-18T05:55:54.241Z,13.73
2022-10-18T05:56:57.053Z,13.74
2022-10-18T05:57:59.250Z,13.77
2022-10-18T05:59:04.989Z,13.78
2022-10-18T06:00:08.159Z,13.81
2022-10-18T06:01:14.593Z,13.82
2022-10-18T06:02:16.449Z,13.83
2022-10-18T06:03:19.356Z,13.85
2022-10-18T06:04:22.429Z,13.87
2022-10-18T06:05:24.441Z,13.88
2022-10-18T06:06:27.283Z,13.89
2022-10-18T06:07:29.285Z,13.86
2022-10-18T06:08:32.196Z,13.86
2022-10-18T06:09:35.026Z,13.85
2022-10-18T06:10:40.165Z,13.82
2022-10-18T06:11:43.169Z,13.81
2022-10-18T06:12:45.086Z,13.80
2022-10-18T06:13:49.379Z,13.79
2022-10-18T06:14:51.391Z,13.77
2022-10-18T06:15:57.382Z,13.77
2022-10-18T06:17:00.369Z,13.76
2022-10-18T06:18:02.315Z,13.78
2022-10-18T06:19:05.352Z,13.81
2022-10-18T06:20:08.526Z,13.82
2022-10-18T06:21:11.593Z,13.82
2022-10-18T06:22:13.658Z,13.81
2022-10-18T06:23:16.453Z,13.81
2022-10-18T06:24:21.533Z,13.79
2022-10-18T06:25:23.336Z,13.79
2022-10-18T06:26:28.445Z,13.78
2022-10-18T06:27:31.989Z,13.78
2022-10-18T06:28:36.301Z,13.78
2022-10-18T06:29:39.383Z,13.78
2022-10-18T06:30:42.248Z,13.76
2022-10-18T06:31:44.264Z,13.76
2022-10-18T06:32:47.262Z,13.76
2022-10-18T06:33:49.474Z,13.76
2022-10-18T06:34:52.414Z,13.75
2022-10-18T06:35:55.759Z,13.75
2022-10-18T06:36:58.948Z,13.75
2022-10-18T06:38:01.953Z,13.76
2022-10-18T06:39:05.161Z,13.76
2022-10-18T06:40:08.383Z,13.81
2022-10-18T06:41:11.902Z,13.82
2022-10-18T06:42:16.958Z,13.82
2022-10-18T06:43:22.202Z,13.83
2022-10-18T06:44:25.251Z,13.83
2022-10-18T06:45:27.305Z,13.81
2022-10-18T06:46:30.268Z,13.82
2022-10-18T06:47:33.238Z,13.81
2022-10-18T06:48:36.348Z,13.80
2022-10-18T06:49:39.361Z,13.79
2022-10-18T06:50:41.458Z,13.79
2022-10-18T06:51:45.745Z,13.78
2022-10-18T06:52:48.918Z,13.78
2022-10-18T06:54:12.990Z,13.78
2022-10-18T06:55:15.117Z,13.77
2022-10-18T06:56:17.135Z,13.78
2022-10-18T06:57:21.584Z,13.76
2022-10-18T06:58:23.688Z,13.77
2022-10-18T06:59:28.976Z,13.77
2022-10-18T07:00:33.324Z,13.78
2022-10-18T07:01:36.586Z,13.78
2022-10-18T07:02:41.560Z,13.78
2022-10-18T07:03:45.548Z,13.79
2022-10-18T07:04:49.055Z,13.79
2022-10-18T07:05:51.374Z,13.78
2022-10-18T07:06:55.397Z,13.79
2022-10-18T07:07:57.806Z,13.80
2022-10-18T07:09:02.984Z,13.81
2022-10-18T07:10:06.031Z,13.81
2022-10-18T07:11:09.892Z,13.82
2022-10-18T07:12:17.954Z,13.82
2022-10-18T07:13:32.572Z,13.82
2022-10-18T07:14:36.236Z,13.82
2022-10-18T07:15:38.734Z,13.84
2022-10-18T07:16:41.963Z,13.82
2022-10-18T07:17:45.736Z,13.84
2022-10-18T07:18:51.019Z,13.84
2022-10-18T07:19:53.176Z,13.83
2022-10-18T07:20:56.410Z,13.85
2022-10-18T07:21:59.683Z,13.85
2022-10-18T07:23:01.987Z,13.85
2022-10-18T07:24:06.799Z,13.86
2022-10-18T07:25:10.919Z,13.86
2022-10-18T07:26:15.138Z,13.85
2022-10-18T07:27:18.425Z,13.87
2022-10-18T07:28:22.015Z,13.87
2022-10-18T07:29:25.211Z,13.87
2022-10-18T07:30:27.526Z,13.88
2022-10-18T07:31:30.998Z,13.88
2022-10-18T07:32:33.536Z,13.89
2022-10-18T07:33:37.970Z,13.89
2022-10-18T07:34:41.263Z,13.90
2022-10-18T07:35:43.813Z,13.92
2022-10-18T07:36:47.228Z,13.93
2022-10-18T07:37:49.537Z,13.93
2022-10-18T07:38:53.655Z,13.95
2022-10-18T07:39:55.866Z,13.95
2022-10-18T07:40:59.218Z,13.95
2022-10-18T07:42:03.222Z,13.96
2022-10-18T07:43:07.513Z,13.97
2022-10-18T07:44:14.699Z,13.99
2022-10-18T07:45:17.081Z,14.04
2022-10-18T07:46:21.382Z,14.12
2022-10-18T07:47:23.517Z,14.15
2022-10-18T07:48:27.163Z,14.16
2022-10-18T07:49:30.370Z,14.15
2022-10-18T07:50:32.473Z,14.15
2022-10-18T07:51:36.177Z,14.15
2022-10-18T07:52:38.275Z,14.14
2022-10-18T07:53:41.513Z,14.14
2022-10-18T07:54:44.795Z,14.16
2022-10-18T07:55:47.003Z,14.18
2022-10-18T07:56:50.136Z,14.24
2022-10-18T07:57:52.549Z,14.32
2022-10-18T07:58:57.301Z,14.38
2022-10-18T08:00:01.954Z,14.45
2022-10-18T08:01:15.229Z,14.53
2022-10-18T08:02:18.421Z,14.59
2022-10-18T08:03:20.647Z,14.65
2022-10-18T08:04:23.771Z,14.71
2022-10-18T08:05:27.177Z,14.76
2022-10-18T08:06:30.511Z,14.79
2022-10-18T08:07:33.676Z,14.82
2022-10-18T08:08:38.459Z,14.85
2022-10-18T08:09:41.542Z,14.88
2022-10-18T08:10:43.656Z,14.92
2022-10-18T08:11:46.824Z,14.94
2022-10-18T08:13:14.787Z,14.94
2022-10-18T08:14:18.086Z,14.95
2022-10-18T08:15:24.883Z,14.95
2022-10-18T08:17:35.062Z,14.97
2022-10-18T08:18:39.014Z,14.98
2022-10-18T08:19:52.699Z,14.98
2022-10-18T08:21:07.204Z,15.01
2022-10-18T08:22:09.399Z,15.02
2022-10-18T08:23:12.337Z,15.04
2022-10-18T08:24:17.884Z,15.06
2022-10-18T08:25:20.267Z,15.06
2022-10-18T08:26:23.934Z,15.08
2022-10-18T08:27:26.437Z,15.09
2022-10-18T08:28:29.695Z,15.09
2022-10-18T08:29:32.271Z,15.09
2022-10-18T08:30:37.542Z,15.11
2022-10-18T08:31:40.652Z,15.13
2022-10-18T08:32:42.799Z,15.15
2022-10-18T08:33:47.237Z,15.16
2022-10-18T08:34:49.327Z,15.17
2022-10-18T08:35:59.555Z,15.21
2022-10-18T08:37:02.879Z,15.24
2022-10-18T08:38:05.051Z,15.25
2022-10-18T08:39:08.079Z,15.27
2022-10-18T08:40:12.898Z,15.29
2022-10-18T08:41:28.154Z,15.31
2022-10-18T08:42:44.235Z,15.33
2022-10-18T08:43:55.068Z,15.37
2022-10-18T08:45:04.895Z,15.38
2022-10-18T08:46:21.211Z,15.41
2022-10-18T08:47:35.064Z,15.42
2022-10-18T08:48:43.302Z,15.45
2022-10-18T08:49:49.225Z,15.46
2022-10-18T08:50:55.495Z,15.50
2022-10-18T08:51:58.555Z,15.54
2022-10-18T08:53:15.092Z,15.57
2022-10-18T08:54:23.875Z,15.61
2022-10-18T08:55:36.150Z,15.61
2022-10-18T08:56:41.961Z,15.67
2022-10-18T08:57:45.472Z,15.67
2022-10-18T08:58:48.904Z,15.67
2022-10-18T08:59:51.237Z,15.66
2022-10-18T09:01:06.847Z,15.64
2022-10-18T09:02:23.171Z,15.64
2022-10-18T09:03:39.619Z,15.63
2022-10-18T09:04:50.561Z,15.63
2022-10-18T09:05:57.057Z,15.63
2022-10-18T09:07:17.859Z,15.65
2022-10-18T09:08:58.078Z,15.65
2022-10-18T09:10:07.023Z,15.64
2022-10-18T09:11:22.336Z,15.63
2022-10-18T09:12:44.781Z,15.64
2022-10-18T09:14:10.431Z,15.64
2022-10-18T09:15:21.192Z,15.62
2022-10-18T09:16:31.471Z,15.60
2022-10-18T09:17:48.698Z,15.60
2022-10-18T09:19:02.635Z,15.59
2022-10-18T09:20:19.868Z,15.59
2022-10-18T09:21:42.174Z,15.57
2022-10-18T09:22:54.315Z,15.56
2022-10-18T09:24:05.659Z,15.55
2022-10-18T09:25:17.207Z,15.55
2022-10-18T09:26:21.902Z,15.55
2022-10-18T09:27:31.843Z,15.53
2022-10-18T09:28:44.223Z,15.53
2022-10-18T09:29:59.753Z,15.52
2022-10-18T09:31:09.457Z,15.52
2022-10-18T09:32:26.656Z,15.52
2022-10-18T09:33:40.657Z,15.53
2022-10-18T09:34:48.489Z,15.51
2022-10-18T09:35:56.179Z,15.52
2022-10-18T09:36:59.295Z,15.51
2022-10-18T09:38:07.205Z,15.52
2022-10-18T09:39:13.279Z,15.50
2022-10-18T09:40:21.657Z,15.51
2022-10-18T09:41:28.483Z,15.51
2022-10-18T09:42:37.185Z,15.50
2022-10-18T09:43:50.516Z,15.52
2022-10-18T09:44:58.934Z,15.53
2022-10-18T09:46:03.023Z,15.53
2022-10-18T09:47:16.527Z,15.54
2022-10-18T09:48:23.881Z,15.56
2022-10-18T09:49:31.837Z,15.57
2022-10-18T09:50:39.602Z,15.57
2022-10-18T09:51:43.563Z,15.58
2022-10-18T09:52:53.427Z,15.58
2022-10-18T09:54:07.078Z,15.61
2022-10-18T09:55:16.391Z,15.60
2022-10-18T09:56:27.565Z,15.61
2022-10-18T09:57:36.851Z,15.62
2022-10-18T09:58:44.222Z,15.63
2022-10-18T09:59:48.608Z,15.63
2022-10-18T10:00:52.914Z,15.64
2022-10-18T10:01:56.313Z,15.66
2022-10-18T10:03:01.555Z,15.68
2022-10-18T10:04:03.704Z,15.70
2022-10-18T10:05:13.929Z,15.74
2022-10-18T10:06:26.544Z,15.78
2022-10-18T10:07:36.732Z,15.80
2022-10-18T10:08:41.804Z,15.83
2022-10-18T10:09:48.276Z,15.85
2022-10-18T10:10:50.581Z,15.89
2022-10-18T10:11:55.423Z,15.91
2022-10-18T10:13:07.477Z,15.94
2022-10-18T10:15:28.143Z,15.96
2022-10-18T10:16:33.237Z,15.96
2022-10-18T10:17:36.368Z,15.97
2022-10-18T10:18:41.333Z,15.97
2022-10-18T10:19:59.923Z,15.98
2022-10-18T10:21:06.825Z,15.98
2022-10-18T10:22:11.875Z,16.00
2022-10-18T10:24:35.440Z,16.00
2022-10-18T10:25:38.495Z,16.00
2022-10-18T10:26:41.539Z,16.02
2022-10-18T10:27:45.505Z,16.01
2022-10-18T10:28:49.472Z,16.01
2022-10-18T10:29:56.653Z,16.02
2022-10-18T10:31:20.052Z,16.04
2022-10-18T10:32:24.438Z,16.06
2022-10-18T10:33:34.676Z,16.08
2022-10-18T10:34:38.829Z,16.10
2022-10-18T10:35:59.122Z,16.11
2022-10-18T10:37:02.711Z,16.12
2022-10-18T10:38:07.064Z,16.14
2022-10-18T10:39:13.581Z,16.14
2022-10-18T10:40:26.360Z,16.15
2022-10-18T10:42:59.931Z,16.19
2022-10-18T10:44:17.297Z,16.21
2022-10-18T10:45:20.494Z,16.22
2022-10-18T10:46:26.348Z,16.22
2022-10-18T10:47:33.011Z,16.22
2022-10-18T10:48:46.812Z,16.25
2022-10-18T10:49:48.853Z,16.26
2022-10-18T10:50:56.071Z,16.27
2022-10-18T10:52:08.928Z,16.29
2022-10-18T10:53:50.989Z,16.29
2022-10-18T10:55:05.877Z,16.33
2022-10-18T10:56:24.132Z,16.33
2022-10-18T10:57:28.073Z,16.35
2022-10-18T10:58:37.283Z,16.36
2022-10-18T10:59:45.461Z,16.38
2022-10-18T11:00:47.413Z,16.40
2022-10-18T11:01:51.469Z,16.43
2022-10-18T11:03:27.306Z,16.45
2022-10-18T11:04:31.604Z,16.47
2022-10-18T11:05:43.211Z,16.50
2022-10-18T11:06:52.863Z,16.52
2022-10-18T11:07:57.713Z,16.52
2022-10-18T11:09:06.463Z,16.55
2022-10-18T11:10:15.866Z,16.55
2022-10-18T11:11:26.753Z,16.55
2022-10-18T11:12:34.736Z,16.57
2022-10-18T11:13:53.409Z,16.58
2022-10-18T11:15:18.307Z,16.58
2022-10-18T11:16:29.442Z,16.61
2022-10-18T11:17:38.421Z,16.61
2022-10-18T11:18:43.997Z,16.63
2022-10-18T11:20:05.270Z,16.65
2022-10-18T11:21:11.662Z,16.64
2022-10-18T11:22:18.630Z,16.67
2022-10-18T11:23:24.566Z,16.69
2022-10-18T11:24:27.860Z,16.73
2022-10-18T11:25:48.085Z,16.73
2022-10-18T11:26:58.288Z,16.75
2022-10-18T11:28:06.327Z,16.75
2022-10-18T11:29:27.088Z,16.75
2022-10-18T11:30:45.122Z,16.75
2022-10-18T11:31:56.251Z,16.74
2022-10-18T11:33:07.686Z,16.74
2022-10-18T11:34:28.398Z,16.72
2022-10-18T11:35:40.467Z,16.74
2022-10-18T11:36:57.885Z,16.74
2022-10-18T11:38:30.796Z,16.78
2022-10-18T11:39:47.634Z,16.82
2022-10-18T11:41:05.361Z,16.82
2022-10-18T11:42:20.525Z,16.84
2022-10-18T11:43:38.934Z,16.83
2022-10-18T11:45:00.758Z,16.84
2022-10-18T11:46:12.986Z,16.87
2022-10-18T11:47:23.383Z,16.87
2022-10-18T11:49:02.074Z,16.90
2022-10-18T11:50:26.631Z,16.92
2022-10-18T11:51:56.300Z,16.92
2022-10-18T11:53:18.382Z,16.93
2022-10-18T11:54:48.334Z,16.95
2022-10-18T11:56:02.575Z,17.01
2022-10-18T11:57:18.169Z,17.07
2022-10-18T11:58:34.312Z,17.11
2022-10-18T11:59:41.143Z,17.09
2022-10-18T12:00:52.185Z,17.10
2022-10-18T12:02:07.129Z,17.10
2022-10-18T12:03:34.592Z,17.09
2022-10-18T12:04:49.090Z,17.07
2022-10-18T12:06:07.995Z,17.07
2022-10-18T12:07:15.655Z,17.06
2022-10-18T12:08:23.766Z,17.06
2022-10-18T12:09:32.371Z,17.05
2022-10-18T12:10:59.887Z,17.08
2022-10-18T12:12:06.510Z,17.18
2022-10-18T12:13:16.437Z,17.18
2022-10-18T12:14:26.428Z,17.17
2022-10-18T12:15:31.390Z,17.17
2022-10-18T12:16:51.052Z,17.19
2022-10-18T12:17:59.114Z,17.18
2022-10-18T12:19:04.721Z,17.16
2022-10-18T12:20:14.524Z,17.16
2022-10-18T12:21:24.545Z,17.17
2022-10-18T12:22:35.837Z,17.17
2022-10-18T12:23:43.938Z,17.17
2022-10-18T12:24:46.983Z,17.18
2022-10-18T12:25:53.865Z,17.21
2022-10-18T12:27:01.145Z,17.22
2022-10-18T12:28:09.401Z,17.25
2022-10-18T12:29:23.141Z,17.26
2022-10-18T12:30:34.897Z,17.26
2022-10-18T12:31:43.474Z,17.28
2022-10-18T12:33:03.330Z,17.28
2022-10-18T12:34:26.045Z,17.35
2022-10-18T12:35:35.947Z,17.35
2022-10-18T12:36:59.728Z,17.36
2022-10-18T12:38:17.910Z,17.42
2022-10-18T12:39:37.498Z,17.47
2022-10-18T12:40:50.011Z,17.46
2022-10-18T12:41:56.560Z,17.43
2022-10-18T12:42:59.739Z,17.39
2022-10-18T12:44:05.259Z,17.40
2022-10-18T12:45:27.835Z,17.39
2022-10-18T12:46:44.487Z,17.38
2022-10-18T12:47:47.692Z,17.34
2022-10-18T12:49:03.289Z,17.33
2022-10-18T12:50:24.213Z,17.31
2022-10-18T12:51:27.105Z,17.36
2022-10-18T12:52:30.750Z,17.42
2022-10-18T12:53:34.960Z,17.42
2022-10-18T12:54:38.526Z,17.45
2022-10-18T12:56:51.970Z,17.46
2022-10-18T12:58:27.889Z,17.47
2022-10-18T12:59:54.764Z,17.47
2022-10-18T13:01:08.152Z,17.48
2022-10-18T13:02:24.280Z,17.48
2022-10-18T13:03:40.936Z,17.44
2022-10-18T13:04:43.999Z,17.44
2022-10-18T13:05:57.588Z,17.46
2022-10-18T13:07:22.688Z,17.45
2022-10-18T13:08:41.927Z,17.45
2022-10-18T13:10:19.912Z,17.45
2022-10-18T13:11:33.367Z,17.42
2022-10-18T13:12:56.080Z,17.40
2022-10-18T13:14:26.297Z,17.44
2022-10-18T13:15:42.742Z,17.48
2022-10-18T13:16:49.603Z,17.52
2022-10-18T13:18:00.443Z,17.52
2022-10-18T13:19:19.852Z,17.51
2022-10-18T13:20:30.963Z,17.47
2022-10-18T13:21:44.962Z,17.45
2022-10-18T13:23:00.166Z,17.45
2022-10-18T13:24:20.803Z,17.44
2022-10-18T13:25:29.202Z,17.42
2022-10-18T13:26:45.331Z,17.40
2022-10-18T13:27:54.992Z,17.39
2022-10-18T13:29:05.041Z,17.39
2022-10-18T13:30:27.111Z,17.36
2022-10-18T13:31:41.234Z,17.36
2022-10-18T13:32:52.329Z,17.35
2022-10-18T13:33:55.419Z,17.38
2022-10-18T13:34:57.391Z,17.38
2022-10-18T13:36:03.284Z,17.39
2022-10-18T13:37:19.925Z,17.40
2022-10-18T13:38:41.308Z,17.39
2022-10-18T13:39:44.434Z,17.38
2022-10-18T13:41:01.568Z,17.38
2022-10-18T13:42:30.452Z,17.43
2022-10-18T13:44:03.533Z,17.44
2022-10-18T13:45:45.509Z,17.44
2022-10-18T13:47:33.276Z,17.44
2022-10-18T13:48:52.798Z,17.45
2022-10-18T13:50:35.957Z,17.44
2022-10-18T13:51:55.327Z,17.43
2022-10-18T13:53:19.181Z,17.43
2022-10-18T13:54:44.530Z,17.51
2022-10-18T13:56:20.877Z,17.55
2022-10-18T13:57:46.316Z,17.75
2022-10-18T13:59:13.794Z,17.87
2022-10-18T14:00:30.150Z,17.96
2022-10-18T14:01:47.454Z,18.01
2022-10-18T14:03:54.992Z,18.08
2022-10-18T14:05:24.510Z,18.10
2022-10-18T14:06:35.097Z,18.11
2022-10-18T14:07:38.200Z,18.19
2022-10-18T14:08:45.572Z,18.21
2022-10-18T14:09:52.512Z,18.20
2022-10-18T14:11:04.036Z,18.17
2022-10-18T14:12:18.355Z,18.12
2022-10-18T14:13:26.723Z,18.11
2022-10-18T14:14:38.149Z,18.10
2022-10-18T14:15:43.990Z,18.10
2022-10-18T14:16:51.412Z,18.12
2022-10-18T14:18:00.118Z,18.12
2022-10-18T14:19:18.348Z,18.13
2022-10-18T14:20:28.747Z,18.19
2022-10-18T14:21:38.489Z,18.20
2022-10-18T14:22:47.859Z,18.32
2022-10-18T14:23:51.918Z,18.39
2022-10-18T14:24:56.629Z,18.44
2022-10-18T14:26:07.152Z,18.42
2022-10-18T14:27:17.528Z,18.37
2022-10-18T14:28:31.430Z,18.29
2022-10-18T14:29:45.667Z,18.17
2022-10-18T14:30:54.931Z,18.09
2022-10-18T14:31:58.881Z,18.01
2022-10-18T14:33:01.124Z,17.96
2022-10-18T14:34:04.750Z,17.91
2022-10-18T14:35:33.966Z,17.85
2022-10-18T14:36:40.825Z,17.82
2022-10-18T14:37:43.397Z,17.78
2022-10-18T14:38:50.203Z,17.75